KMBL

Details ICAO KMBL (MBL)
Name MANISTEE CO BLACKER
Region United States
Timezone America/Detroit (UTC-4.0)
Plans Departing 2
Arriving 2
Stats Elevation 621 ft / 189 m (AMSL)
Location 44.272383° -86.248208°
Runways 2
Magnetic Variation 5.486° W
Sunrise 2018-05-22 10:12:38 UTC / 2018-05-22 06:12:38 Local
Sunset 2018-05-23 01:13:34 UTC / 2018-05-22 21:13:34 Local
Advertisement - Login to hide

Runways

ID Width Length Bearing (true) Bearing (mag) Surface Threshold Offset Overrun Length
09 98 ft / 30 m 5,486 ft / 1,672 m 91.46° 96.95° Asphalt 0 ft / 0 m 810 ft / 247 m
18 75 ft / 23 m 2,723 ft / 830 m 181.44° 186.93° Asphalt 0 ft / 0 m 0 ft / 0 m
27 98 ft / 30 m 5,486 ft / 1,672 m 271.48° 276.97° Asphalt 0 ft / 0 m 0 ft / 0 m
36 75 ft / 23 m 2,723 ft / 830 m 1.44° 6.93° Asphalt 0 ft / 0 m 0 ft / 0 m

Map

Weather


0- 5 10 15 20 25 30 35+ Temperature / ° C

Clouds and Precipitation
Forecast for 2018-05-22 06:00 UTC. Updated 4 hours ago

Ground ~20,000 ft ~40,000 ft Winds

METAR

KMBL 220756Z AUTO 07003KT 6SM -RA BR BKN009 OVC013 11/10 A3001 RMK AO2 RAB32 CIG 007V012 SLP185 P0000 T01060100

TAF

TAF KMBL 220536Z 2206/2306 VRB03KT P6SM VCSH OVC020 FM220900 00000KT 5SM BR OVC015 FM221500 VRB03KT P6SM BKN020 FM221600 VRB04KT P6SM BKN080 FM221900 34005KT P6SM SCT150 FM230000 00000KT P6SM SKC

Frequencies

Recorded 118.32 MHz AWOS 3
Unicom 122.80 MHz CTAF/UNICOM
Warning: Do not use this data for real-world aviation or navigation. No guarantee of current accuracy is given.